Mentor, Indiana
Current Conditions -  °F | °C
As of 8:55 PM on Monday 22 Dec 2014 (Local Time) from KHNB Reporting Station
Overcast Overcast  
Wind Chill: 52°   Ceiling: 1500
Heat Index: 52°   Visibility: 10mi
Dew Point: 46°   Wind: 6mph
Humidity: 82%   Direction: 150°SSE
Pressure: 29.67"   Gusts: NA
Location:  38.2817°N, 86.7167°W
Report Text: KHNB 230255Z AUTO 15005KT 10SM OVC015 11/08 A2967 RMK AO1 60001 57003
Loading
Personal Weather Stations






























Interactive Weather Map New forecast layout! Learn more

10-Day Weather Forecast

Advertisements
Track Severe Weather on mobile